createdAt,value
2017-12-03T00:00:47.522Z,12.80
2017-12-03T00:03:15.863Z,13.13
2017-12-03T00:05:44.220Z,14.07
2017-12-03T00:08:12.593Z,18.97
2017-12-03T00:10:40.946Z,22.43
2017-12-03T00:13:10.056Z,16.87
2017-12-03T00:15:38.452Z,17.03
2017-12-03T00:18:06.808Z,15.43
2017-12-03T00:20:35.148Z,13.97
2017-12-03T00:23:03.497Z,15.60
2017-12-03T00:25:32.652Z,15.23
2017-12-03T00:28:03.666Z,14.37
2017-12-03T00:30:32.710Z,14.20
2017-12-03T00:33:01.673Z,15.20
2017-12-03T00:35:31.051Z,15.77
2017-12-03T00:38:00.221Z,16.63
2017-12-03T00:40:28.578Z,14.97
2017-12-03T00:42:57.106Z,16.37
2017-12-03T00:45:26.205Z,16.53
2017-12-03T00:47:55.326Z,15.97
2017-12-03T00:50:23.691Z,15.70
2017-12-03T00:52:52.814Z,15.67
2017-12-03T00:55:21.197Z,17.17
2017-12-03T00:57:49.535Z,16.10
2017-12-03T01:00:17.890Z,16.90
2017-12-03T01:02:46.244Z,17.93
2017-12-03T01:05:14.596Z,18.30
2017-12-03T01:07:43.162Z,17.33
2017-12-03T01:10:11.507Z,19.87
2017-12-03T01:12:40.438Z,18.80
2017-12-03T01:15:08.782Z,19.70
2017-12-03T01:17:37.714Z,19.20
2017-12-03T01:20:06.113Z,19.30
2017-12-03T01:22:34.301Z,20.20
2017-12-03T01:25:03.241Z,20.03
2017-12-03T01:27:31.762Z,19.67
2017-12-03T01:30:00.307Z,19.20
2017-12-03T01:32:28.652Z,18.80
2017-12-03T01:34:57.799Z,17.87
2017-12-03T01:37:26.138Z,18.03
2017-12-03T01:39:54.466Z,19.37
2017-12-03T01:42:22.542Z,19.83
2017-12-03T01:44:50.901Z,19.33
2017-12-03T01:47:19.250Z,18.83
2017-12-03T01:49:47.615Z,18.33
2017-12-03T01:52:15.967Z,18.50
2017-12-03T01:54:45.070Z,18.33
2017-12-03T01:57:14.188Z,18.10
2017-12-03T01:59:42.531Z,19.33
2017-12-03T02:02:11.007Z,19.00
2017-12-03T02:04:40.134Z,17.90
2017-12-03T02:07:07.807Z,18.83
2017-12-03T02:09:35.514Z,16.93
2017-12-03T02:12:03.539Z,17.37
2017-12-03T02:14:32.716Z,16.80
2017-12-03T02:17:01.683Z,17.30
2017-12-03T02:19:29.704Z,17.07
2017-12-03T02:21:57.408Z,17.90
2017-12-03T02:24:25.828Z,16.70
2017-12-03T02:26:54.189Z,17.60
2017-12-03T02:29:22.531Z,18.23
2017-12-03T02:31:50.871Z,16.73
2017-12-03T02:34:19.250Z,17.27
2017-12-03T02:36:47.787Z,17.27
2017-12-03T02:39:16.919Z,18.53
2017-12-03T02:41:45.272Z,16.87
2017-12-03T02:44:13.624Z,17.60
2017-12-03T02:46:42.742Z,16.77
2017-12-03T02:49:11.077Z,17.97
2017-12-03T02:51:39.425Z,16.43
2017-12-03T02:54:07.767Z,17.33
2017-12-03T02:56:36.097Z,18.17
2017-12-03T02:59:04.130Z,20.23
2017-12-03T03:01:32.931Z,27.97
2017-12-03T03:04:01.291Z,24.20
2017-12-03T03:06:29.307Z,22.67
2017-12-03T03:08:57.698Z,20.13
2017-12-03T03:11:26.851Z,19.73
2017-12-03T03:13:54.738Z,19.90
2017-12-03T03:16:23.119Z,19.87
2017-12-03T03:18:51.565Z,20.67
2017-12-03T03:21:19.942Z,19.00
2017-12-03T03:23:48.296Z,19.73
2017-12-03T03:26:16.654Z,18.90
2017-12-03T03:28:45.798Z,20.00
2017-12-03T03:31:14.131Z,20.00
2017-12-03T03:33:43.255Z,19.43
2017-12-03T03:36:11.291Z,19.97
2017-12-03T03:38:40.386Z,18.30
2017-12-03T03:41:09.501Z,18.40
2017-12-03T03:43:37.869Z,19.90
2017-12-03T03:46:06.206Z,20.57
2017-12-03T03:48:34.273Z,18.97
2017-12-03T03:51:03.242Z,17.53
2017-12-03T03:53:32.674Z,18.07
2017-12-03T03:56:00.456Z,18.43
2017-12-03T03:58:29.559Z,17.30
2017-12-03T04:00:58.012Z,18.93
2017-12-03T04:03:25.775Z,18.20
2017-12-03T04:05:54.117Z,17.73
2017-12-03T04:08:22.139Z,17.50
2017-12-03T04:10:50.606Z,17.67
2017-12-03T04:13:18.366Z,18.20
2017-12-03T04:15:46.733Z,16.93
2017-12-03T04:18:15.102Z,17.73
2017-12-03T04:20:42.985Z,18.37
2017-12-03T04:23:11.791Z,18.17
2017-12-03T04:25:40.707Z,16.57
2017-12-03T04:28:08.453Z,17.70
2017-12-03T04:30:36.613Z,17.40
2017-12-03T04:33:05.763Z,17.90
2017-12-03T04:35:33.779Z,17.90
2017-12-03T04:38:03.211Z,18.23
2017-12-03T04:40:31.742Z,18.30
2017-12-03T04:43:01.105Z,18.47
2017-12-03T04:45:28.782Z,19.03
2017-12-03T04:47:56.811Z,19.43
2017-12-03T04:50:24.815Z,18.93
2017-12-03T04:52:52.530Z,18.87
2017-12-03T04:55:20.202Z,19.33
2017-12-03T04:57:47.897Z,19.83
2017-12-03T05:00:15.622Z,19.10
2017-12-03T05:02:43.435Z,18.73
2017-12-03T05:05:11.129Z,20.53
2017-12-03T05:07:39.587Z,20.60
2017-12-03T05:10:07.304Z,21.37
2017-12-03T05:12:35.991Z,22.57
2017-12-03T05:15:03.671Z,21.20
2017-12-03T05:17:31.355Z,21.40
2017-12-03T05:19:59.064Z,20.63
2017-12-03T05:22:27.067Z,21.23
2017-12-03T05:24:55.450Z,23.67
2017-12-03T05:27:23.126Z,21.00
2017-12-03T05:29:50.896Z,21.37
2017-12-03T05:32:19.690Z,21.67
2017-12-03T05:34:48.486Z,21.90
2017-12-03T05:37:16.496Z,22.60
2017-12-03T05:39:44.208Z,21.50
2017-12-03T05:42:12.985Z,21.57
2017-12-03T05:44:41.455Z,21.53
2017-12-03T05:47:09.791Z,22.83
2017-12-03T05:49:38.273Z,23.30
2017-12-03T05:52:06.307Z,22.50
2017-12-03T05:54:34.380Z,21.43
2017-12-03T05:57:03.120Z,21.43
2017-12-03T05:59:32.143Z,21.97
2017-12-03T06:02:01.310Z,21.70
2017-12-03T06:04:29.318Z,23.43
2017-12-03T06:06:57.004Z,24.20
2017-12-03T06:09:24.690Z,22.67
2017-12-03T06:11:53.079Z,23.37
2017-12-03T06:14:20.571Z,23.87
2017-12-03T06:16:48.912Z,23.10
2017-12-03T06:19:16.442Z,22.93
2017-12-03T06:21:43.954Z,24.73
2017-12-03T06:24:12.427Z,23.37
2017-12-03T06:26:40.875Z,23.40
2017-12-03T06:29:08.565Z,24.03
2017-12-03T06:31:37.032Z,22.50
2017-12-03T06:34:04.797Z,23.37
2017-12-03T06:36:33.187Z,23.30
2017-12-03T06:39:02.401Z,23.10
2017-12-03T06:41:31.728Z,21.87
2017-12-03T06:43:59.419Z,22.57
2017-12-03T06:46:27.089Z,23.47
2017-12-03T06:48:55.136Z,23.03
2017-12-03T06:51:23.920Z,24.13
2017-12-03T06:53:51.600Z,23.60
2017-12-03T06:56:19.291Z,22.80
2017-12-03T06:58:48.087Z,24.40
2017-12-03T07:01:16.863Z,24.90
2017-12-03T07:03:45.981Z,22.47
2017-12-03T07:06:13.671Z,23.77
2017-12-03T07:08:42.037Z,22.87
2017-12-03T07:11:09.712Z,22.93
2017-12-03T07:13:37.396Z,21.80
2017-12-03T07:16:05.104Z,24.50
2017-12-03T07:18:33.117Z,24.57
2017-12-03T07:21:01.311Z,24.40
2017-12-03T07:23:29.750Z,25.70
2017-12-03T07:25:57.768Z,26.10
2017-12-03T07:28:26.377Z,23.27
2017-12-03T07:30:54.067Z,24.83
2017-12-03T07:33:21.743Z,22.63
2017-12-03T07:35:49.588Z,23.53
2017-12-03T07:38:17.092Z,21.67
2017-12-03T07:40:44.956Z,23.20
2017-12-03T07:43:13.718Z,22.10
2017-12-03T07:45:41.206Z,23.47
2017-12-03T07:48:09.714Z,24.00
2017-12-03T07:50:37.406Z,22.73
2017-12-03T07:53:05.102Z,24.27
2017-12-03T07:55:33.555Z,23.33
2017-12-03T07:58:01.753Z,23.00
2017-12-03T08:00:30.547Z,23.23
2017-12-03T08:02:59.323Z,22.93
2017-12-03T08:05:28.104Z,23.70
2017-12-03T08:07:56.215Z,22.60
2017-12-03T08:10:23.904Z,22.60
2017-12-03T08:12:52.391Z,20.87
2017-12-03T08:15:20.110Z,21.77
2017-12-03T08:17:47.834Z,20.80
2017-12-03T08:20:15.846Z,20.07
2017-12-03T08:22:43.867Z,20.47
2017-12-03T08:25:11.538Z,19.13
2017-12-03T08:27:40.004Z,19.13
2017-12-03T08:30:07.670Z,17.23
2017-12-03T08:32:35.696Z,15.97
2017-12-03T08:35:03.720Z,15.47
2017-12-03T08:37:33.340Z,16.23
2017-12-03T08:40:02.874Z,16.27
2017-12-03T08:42:31.289Z,15.63
2017-12-03T08:44:58.967Z,16.17
2017-12-03T08:47:27.445Z,17.87
2017-12-03T08:49:55.123Z,17.20
2017-12-03T08:52:24.542Z,19.70
2017-12-03T08:54:52.586Z,18.33
2017-12-03T08:57:21.704Z,17.33
2017-12-03T08:59:49.740Z,16.50
2017-12-03T09:02:18.403Z,15.47
2017-12-03T09:04:46.753Z,14.60
2017-12-03T09:07:14.779Z,15.57
2017-12-03T09:09:43.224Z,13.50
2017-12-03T09:12:11.969Z,14.43
2017-12-03T09:14:39.980Z,13.97
2017-12-03T09:17:07.678Z,13.87
2017-12-03T09:19:36.145Z,12.80
2017-12-03T09:22:03.890Z,13.30
2017-12-03T09:24:32.608Z,13.50
2017-12-03T09:27:01.766Z,13.00
2017-12-03T09:29:30.138Z,12.37
2017-12-03T09:31:58.795Z,12.67
2017-12-03T09:34:26.476Z,15.63
2017-12-03T09:36:54.170Z,14.27
2017-12-03T09:39:21.840Z,13.67
2017-12-03T09:41:51.291Z,12.97
2017-12-03T09:44:19.304Z,14.50
2017-12-03T09:46:47.332Z,13.03
2017-12-03T09:49:15.033Z,14.90
2017-12-03T09:51:42.722Z,13.27
2017-12-03T09:54:10.407Z,14.23
2017-12-03T09:56:38.115Z,14.13
2017-12-03T09:59:05.798Z,13.97
2017-12-03T10:01:34.558Z,14.20
2017-12-03T10:04:03.133Z,13.77
2017-12-03T10:06:31.385Z,14.53
2017-12-03T10:08:59.103Z,15.87
2017-12-03T10:11:27.119Z,14.23
2017-12-03T10:13:55.263Z,15.00
2017-12-03T10:16:22.944Z,15.60
2017-12-03T10:18:50.960Z,15.10
2017-12-03T10:21:18.972Z,16.50
2017-12-03T10:23:46.643Z,16.17
2017-12-03T10:26:14.655Z,17.07
2017-12-03T10:28:42.447Z,16.10
2017-12-03T10:31:10.456Z,15.03
2017-12-03T10:33:38.321Z,16.90
2017-12-03T10:36:06.015Z,16.27
2017-12-03T10:38:34.271Z,15.87
2017-12-03T10:41:03.238Z,14.80
2017-12-03T10:43:31.593Z,15.40
2017-12-03T10:46:00.074Z,15.23
2017-12-03T10:48:28.427Z,16.80
2017-12-03T10:50:57.243Z,15.67
2017-12-03T10:53:25.564Z,15.13
2017-12-03T10:55:53.960Z,15.97
2017-12-03T10:58:22.727Z,15.77
2017-12-03T11:00:50.733Z,15.10
2017-12-03T11:03:19.082Z,15.60
2017-12-03T11:05:47.023Z,15.97
2017-12-03T11:08:15.635Z,16.00
2017-12-03T11:10:43.656Z,16.13
2017-12-03T11:13:11.663Z,16.63
2017-12-03T11:15:40.047Z,16.43
2017-12-03T11:18:08.194Z,16.17
2017-12-03T11:20:36.526Z,15.17
2017-12-03T11:23:04.889Z,15.57
2017-12-03T11:25:33.980Z,16.23
2017-12-03T11:28:03.368Z,15.43
2017-12-03T11:30:31.728Z,15.67
2017-12-03T11:33:00.077Z,16.10
2017-12-03T11:35:28.435Z,16.13
2017-12-03T11:37:56.809Z,16.00
2017-12-03T11:40:25.170Z,18.57
2017-12-03T11:42:54.275Z,16.87
2017-12-03T11:45:23.043Z,17.07
2017-12-03T11:47:52.183Z,17.73
2017-12-03T11:50:20.850Z,18.53
2017-12-03T11:52:49.202Z,17.07
2017-12-03T11:55:18.395Z,18.27
2017-12-03T11:57:46.746Z,17.83
2017-12-03T12:00:15.115Z,17.00
2017-12-03T12:02:43.496Z,17.50
2017-12-03T12:05:11.844Z,18.50
2017-12-03T12:07:40.174Z,17.30
2017-12-03T12:10:08.553Z,16.83
2017-12-03T12:12:36.948Z,16.43
2017-12-03T12:15:06.085Z,16.27
2017-12-03T12:17:34.445Z,14.90
2017-12-03T12:20:02.786Z,14.27
2017-12-03T12:22:31.358Z,15.00
2017-12-03T12:24:59.748Z,15.10
2017-12-03T12:27:28.869Z,15.27
2017-12-03T12:29:57.224Z,14.10
2017-12-03T12:32:26.335Z,14.13
2017-12-03T12:34:54.522Z,14.17
2017-12-03T12:37:22.725Z,14.93
2017-12-03T12:39:51.798Z,15.00
2017-12-03T12:42:20.157Z,14.50
2017-12-03T12:44:48.320Z,15.67
2017-12-03T12:47:16.145Z,15.13
2017-12-03T12:49:44.187Z,15.27
2017-12-03T12:52:12.551Z,15.33
2017-12-03T12:54:40.253Z,14.90
2017-12-03T12:57:07.974Z,15.03
2017-12-03T12:59:36.311Z,15.00
2017-12-03T13:02:04.652Z,14.97
2017-12-03T13:04:33.491Z,15.37
2017-12-03T13:07:02.996Z,14.07
2017-12-03T13:09:32.138Z,14.07
2017-12-03T13:12:00.766Z,15.60
2017-12-03T13:14:29.909Z,14.50
2017-12-03T13:16:58.272Z,15.63
2017-12-03T13:19:26.623Z,17.00
2017-12-03T13:21:55.757Z,15.20
2017-12-03T13:24:24.197Z,16.10
2017-12-03T13:26:53.328Z,16.43
2017-12-03T13:29:21.674Z,15.53
2017-12-03T13:31:50.789Z,16.63
2017-12-03T13:34:19.137Z,16.13
2017-12-03T13:36:48.240Z,16.07
2017-12-03T13:39:17.350Z,15.20
2017-12-03T13:41:45.715Z,15.40
2017-12-03T13:44:14.867Z,16.17
2017-12-03T13:46:43.384Z,15.57
2017-12-03T13:49:12.490Z,16.00
2017-12-03T13:51:40.919Z,15.83
2017-12-03T13:54:09.091Z,15.57
2017-12-03T13:56:37.430Z,16.87
2017-12-03T13:59:05.585Z,15.93
2017-12-03T14:01:33.939Z,16.50
2017-12-03T14:04:02.817Z,16.30
2017-12-03T14:06:31.421Z,17.67
2017-12-03T14:08:59.577Z,16.37
2017-12-03T14:11:28.011Z,18.07
2017-12-03T14:13:56.346Z,17.60
2017-12-03T14:16:24.711Z,16.30
2017-12-03T14:18:52.893Z,16.67
2017-12-03T14:21:21.078Z,15.37
2017-12-03T14:23:50.006Z,16.27
2017-12-03T14:26:18.170Z,15.80
2017-12-03T14:28:46.339Z,16.13
2017-12-03T14:31:14.793Z,16.93
2017-12-03T14:33:43.159Z,17.23
2017-12-03T14:36:11.530Z,18.00
2017-12-03T14:38:39.907Z,22.00
2017-12-03T14:41:08.253Z,21.83
2017-12-03T14:43:36.596Z,27.17
2017-12-03T14:46:05.606Z,25.67
2017-12-03T14:48:33.491Z,24.97
2017-12-03T14:51:02.717Z,20.43
2017-12-03T14:53:31.091Z,17.93
2017-12-03T14:55:59.470Z,17.53
2017-12-03T14:58:27.873Z,16.00
2017-12-03T15:00:56.984Z,16.53
2017-12-03T15:03:25.352Z,16.20
2017-12-03T15:05:54.478Z,16.70
2017-12-03T15:08:22.855Z,16.60
2017-12-03T15:10:52.946Z,16.03
2017-12-03T15:13:21.320Z,16.10
2017-12-03T15:15:50.108Z,16.47
2017-12-03T15:18:18.565Z,16.50
2017-12-03T15:20:46.358Z,17.47
2017-12-03T15:23:14.845Z,16.00
2017-12-03T15:25:43.282Z,21.47
2017-12-03T15:28:10.970Z,18.27
2017-12-03T15:30:39.424Z,18.20
2017-12-03T15:33:07.272Z,17.17
2017-12-03T15:35:34.952Z,17.80
2017-12-03T15:38:02.875Z,16.47
2017-12-03T15:40:30.979Z,17.30
2017-12-03T15:42:58.457Z,17.73
2017-12-03T15:45:26.163Z,16.57
2017-12-03T15:47:53.870Z,16.47
2017-12-03T15:50:21.562Z,16.60
2017-12-03T15:52:50.007Z,17.30
2017-12-03T15:55:17.716Z,16.87
2017-12-03T15:57:45.407Z,16.70
2017-12-03T16:00:13.095Z,17.47
2017-12-03T16:02:40.639Z,15.60
2017-12-03T16:05:08.509Z,15.53
2017-12-03T16:07:36.217Z,15.77
2017-12-03T16:10:05.356Z,16.33
2017-12-03T16:12:33.710Z,15.87
2017-12-03T16:15:03.097Z,16.47
2017-12-03T16:17:31.872Z,21.30
2017-12-03T16:20:00.727Z,21.40
2017-12-03T16:22:32.618Z,26.33
2017-12-03T16:25:01.746Z,23.33
2017-12-03T16:27:29.779Z,21.60
2017-12-03T16:29:57.509Z,26.47
2017-12-03T16:32:25.185Z,23.90
2017-12-03T16:34:53.242Z,28.93
2017-12-03T16:37:21.268Z,27.70
2017-12-03T16:39:50.045Z,25.77
2017-12-03T16:42:19.209Z,29.57
2017-12-03T16:44:47.211Z,27.53
2017-12-03T16:47:15.578Z,27.27
2017-12-03T16:49:43.953Z,23.43
2017-12-03T16:52:12.315Z,22.07
2017-12-03T16:54:40.352Z,19.97
2017-12-03T16:57:08.384Z,17.80
2017-12-03T16:59:37.166Z,21.47
2017-12-03T17:02:05.657Z,19.97
2017-12-03T17:04:34.180Z,18.60
2017-12-03T17:07:03.252Z,19.13
2017-12-03T17:09:31.718Z,16.70
2017-12-03T17:12:00.896Z,17.37
2017-12-03T17:14:28.921Z,16.23
2017-12-03T17:16:56.956Z,15.90
2017-12-03T17:19:25.385Z,17.23
2017-12-03T17:21:53.773Z,17.60
2017-12-03T17:24:21.443Z,17.43
2017-12-03T17:26:48.960Z,18.13
2017-12-03T17:29:16.684Z,18.30
2017-12-03T17:31:45.128Z,27.60
2017-12-03T17:34:13.461Z,28.33
2017-12-03T17:36:41.840Z,26.83
2017-12-03T17:39:10.195Z,23.73
2017-12-03T17:41:39.312Z,24.40
2017-12-03T17:44:07.656Z,27.50
2017-12-03T17:46:36.025Z,24.40
2017-12-03T17:49:04.389Z,23.67
2017-12-03T17:51:33.026Z,20.13
2017-12-03T17:54:01.579Z,26.50
2017-12-03T17:56:29.788Z,37.77
2017-12-03T17:58:57.952Z,29.37
2017-12-03T18:01:26.381Z,26.57
2017-12-03T18:03:54.753Z,23.90
2017-12-03T18:06:23.861Z,19.53
2017-12-03T18:08:52.202Z,18.87
2017-12-03T18:11:20.587Z,17.33
2017-12-03T18:13:48.934Z,16.53
2017-12-03T18:16:17.315Z,14.63
2017-12-03T18:18:45.684Z,15.60
2017-12-03T18:21:14.054Z,14.33
2017-12-03T18:23:43.178Z,14.70
2017-12-03T18:26:11.655Z,13.80
2017-12-03T18:28:39.683Z,12.77
2017-12-03T18:31:07.725Z,13.73
2017-12-03T18:33:35.742Z,12.93
2017-12-03T18:36:04.318Z,13.50
2017-12-03T18:38:33.419Z,13.13
2017-12-03T18:41:02.466Z,11.93
2017-12-03T18:43:31.900Z,11.33
2017-12-03T18:45:59.430Z,10.67
2017-12-03T18:48:26.948Z,10.60
2017-12-03T18:50:55.104Z,10.43
2017-12-03T18:53:23.714Z,9.80
2017-12-03T18:55:51.541Z,10.07
2017-12-03T18:58:20.505Z,9.73
2017-12-03T19:00:48.004Z,10.70
2017-12-03T19:03:17.115Z,9.50
2017-12-03T19:05:45.162Z,9.60
2017-12-03T19:08:14.297Z,9.00
2017-12-03T19:10:42.124Z,9.80
2017-12-03T19:13:10.727Z,8.73
2017-12-03T19:15:39.075Z,8.43
2017-12-03T19:18:07.812Z,8.33
2017-12-03T19:20:35.829Z,8.33
2017-12-03T19:23:04.363Z,10.03
2017-12-03T19:25:33.561Z,9.73
2017-12-03T19:28:01.904Z,8.73
2017-12-03T19:30:31.672Z,10.17
2017-12-03T19:32:59.732Z,12.07
2017-12-03T19:35:28.336Z,9.93
2017-12-03T19:37:56.708Z,10.53
2017-12-03T19:40:25.047Z,9.80
2017-12-03T19:42:53.044Z,8.17
2017-12-03T19:45:21.473Z,8.00
2017-12-03T19:47:50.587Z,9.43
2017-12-03T19:50:18.619Z,8.00
2017-12-03T19:52:47.051Z,7.77
2017-12-03T19:55:15.089Z,7.27
2017-12-03T19:57:44.202Z,8.73
2017-12-03T20:00:12.545Z,8.37
2017-12-03T20:02:41.703Z,8.30
2017-12-03T20:05:10.035Z,8.10
2017-12-03T20:07:38.422Z,7.93
2017-12-03T20:10:06.119Z,8.10
2017-12-03T20:12:34.453Z,8.30
2017-12-03T20:15:04.714Z,7.67
2017-12-03T20:17:32.799Z,8.80
2017-12-03T20:20:01.843Z,9.50
2017-12-03T20:22:29.867Z,9.80
2017-12-03T20:24:58.498Z,8.90
2017-12-03T20:27:27.331Z,8.73
2017-12-03T20:29:56.572Z,9.47
2017-12-03T20:32:25.256Z,9.03
2017-12-03T20:34:54.422Z,9.50
2017-12-03T20:37:22.593Z,9.20
2017-12-03T20:39:50.486Z,10.70
2017-12-03T20:42:19.233Z,11.30
2017-12-03T20:44:46.765Z,11.00
2017-12-03T20:47:15.215Z,12.53
2017-12-03T20:49:43.084Z,11.33
2017-12-03T20:52:12.227Z,19.30
2017-12-03T20:54:40.723Z,18.20
2017-12-03T20:57:09.080Z,19.83
2017-12-03T20:59:37.604Z,17.97
2017-12-03T21:02:06.678Z,16.23
2017-12-03T21:04:34.707Z,14.27
2017-12-03T21:07:03.702Z,16.83
2017-12-03T21:09:32.034Z,16.93
2017-12-03T21:12:01.728Z,17.80
2017-12-03T21:14:29.775Z,18.47
2017-12-03T21:16:58.325Z,17.50
2017-12-03T21:19:26.719Z,17.20
2017-12-03T21:21:54.533Z,14.20
2017-12-03T21:24:22.389Z,15.77
2017-12-03T21:26:50.766Z,19.23
2017-12-03T21:29:18.803Z,19.00
2017-12-03T21:31:47.187Z,16.00
2017-12-03T21:34:15.713Z,17.33
2017-12-03T21:36:44.109Z,14.70
2017-12-03T21:39:13.248Z,15.13
2017-12-03T21:41:41.618Z,15.90
2017-12-03T21:44:09.962Z,16.67
2017-12-03T21:46:38.741Z,18.40
2017-12-03T21:49:07.886Z,17.07
2017-12-03T21:51:36.254Z,20.50
2017-12-03T21:54:04.600Z,19.43
2017-12-03T21:56:33.196Z,19.63
2017-12-03T21:59:02.229Z,20.33
2017-12-03T22:01:30.567Z,19.40
2017-12-03T22:03:58.918Z,19.27
2017-12-03T22:06:28.029Z,20.33
2017-12-03T22:08:56.385Z,17.87
2017-12-03T22:11:25.506Z,19.67
2017-12-03T22:13:53.871Z,17.67
2017-12-03T22:16:22.991Z,21.60
2017-12-03T22:18:51.346Z,15.03
2017-12-03T22:21:20.475Z,18.00
2017-12-03T22:23:48.819Z,20.93
2017-12-03T22:26:17.175Z,20.07
2017-12-03T22:28:45.615Z,20.13
2017-12-03T22:31:13.957Z,20.93
2017-12-03T22:33:42.399Z,19.67
2017-12-03T22:36:10.739Z,20.30
2017-12-03T22:38:39.133Z,23.10
2017-12-03T22:41:07.495Z,18.53
2017-12-03T22:43:35.826Z,15.07
2017-12-03T22:46:04.941Z,15.17
2017-12-03T22:48:33.299Z,14.93
2017-12-03T22:51:02.072Z,16.13
2017-12-03T22:53:30.440Z,16.60
2017-12-03T22:55:58.786Z,16.97
2017-12-03T22:58:27.121Z,17.47
2017-12-03T23:00:56.248Z,17.20
2017-12-03T23:03:24.593Z,15.17
2017-12-03T23:05:53.687Z,19.00
2017-12-03T23:08:22.821Z,15.93
2017-12-03T23:10:51.157Z,17.50
2017-12-03T23:13:19.721Z,15.90
2017-12-03T23:15:48.060Z,15.40
2017-12-03T23:18:16.396Z,14.83
2017-12-03T23:20:45.183Z,14.37
2017-12-03T23:23:13.959Z,14.20
2017-12-03T23:25:42.411Z,15.00
2017-12-03T23:28:10.592Z,15.27
2017-12-03T23:30:38.596Z,15.50
2017-12-03T23:33:07.536Z,13.60
2017-12-03T23:35:35.205Z,13.67
2017-12-03T23:38:04.557Z,12.57
2017-12-03T23:40:33.262Z,14.00
2017-12-03T23:43:01.137Z,13.53
2017-12-03T23:45:28.611Z,13.03
2017-12-03T23:47:56.640Z,12.10
2017-12-03T23:50:24.650Z,13.40
2017-12-03T23:52:52.349Z,12.97
2017-12-03T23:55:20.807Z,13.00
2017-12-03T23:57:48.861Z,13.37
